Time;durP1;ratioP1;P1;durP2;ratioP2;P2;SDS_P1;SDS_P2;PMS_P1;PMS_P2;Temp;Humidity;BMP_temperature;BMP_pressure;BME280_temperature;BME280_humidity;BME280_pressure;Samples;Min_cycle;Max_cycle;Signal;HPM_P1;HPM_P2
2024/02/22 00:01:21;;;;;;;2.70;1.30;;;;;;;17.44;56.81;99654.19;10448092;28;20025;-60
2024/02/22 00:06:21;;;;;;;1.83;1.08;;;;;;;17.44;56.54;99640.00;10450003;28;20044;-59
2024/02/22 00:11:22;;;;;;;2.08;1.10;;;;;;;17.46;57.29;99645.81;10448921;28;20049;-60
2024/02/22 00:16:22;;;;;;;3.17;1.10;;;;;;;17.46;56.32;99638.56;10449325;28;20031;-59
2024/02/22 00:21:23;;;;;;;2.47;1.20;;;;;;;17.47;57.19;99623.28;10448841;28;20021;-59
2024/02/22 00:26:25;;;;;;;3.08;1.38;;;;;;;17.47;56.68;99605.31;10449405;28;20053;-59
2024/02/22 00:31:25;;;;;;;3.13;1.48;;;;;;;17.47;56.71;99604.53;10448800;28;20120;-59
2024/02/22 00:36:25;;;;;;;1.90;1.33;;;;;;;17.45;57.22;99591.44;10448936;28;20031;-59
2024/02/22 00:41:26;;;;;;;3.85;1.42;;;;;;;17.50;56.35;99593.16;10455387;28;20279;-59
2024/02/22 00:46:26;;;;;;;2.20;1.27;;;;;;;17.49;56.39;99575.50;10456418;28;20066;-60
2024/02/22 00:51:26;;;;;;;2.00;1.10;;;;;;;17.45;57.53;99578.03;10456105;28;20036;-60
2024/02/22 00:56:27;;;;;;;1.95;0.90;;;;;;;17.51;55.90;99574.09;10456272;28;20040;-59
2024/02/22 01:01:27;;;;;;;1.70;1.13;;;;;;;17.47;57.16;99567.78;10455885;28;20028;-59
2024/02/22 01:06:28;;;;;;;1.83;0.90;;;;;;;17.46;55.95;99566.22;10455726;28;20021;-60
2024/02/22 01:11:28;;;;;;;2.20;1.13;;;;;;;17.46;57.17;99552.03;10455050;28;20650;-59
2024/02/22 01:16:28;;;;;;;1.90;1.27;;;;;;;17.45;56.92;99545.09;10455444;28;20070;-59
2024/02/22 01:21:29;;;;;;;1.47;0.87;;;;;;;17.44;57.53;99536.28;10454966;28;20363;-59
2024/02/22 01:26:30;;;;;;;2.88;1.20;;;;;;;17.47;56.57;99535.63;10455383;28;20283;-60
2024/02/22 01:31:30;;;;;;;1.63;1.02;;;;;;;17.45;56.95;99527.13;10454487;28;20028;-59
2024/02/22 01:36:31;;;;;;;1.92;0.60;;;;;;;17.45;57.33;99521.78;10454700;28;20159;-59
2024/02/22 01:41:31;;;;;;;1.80;0.80;;;;;;;17.42;56.98;99519.72;10453938;28;20453;-60
2024/02/22 01:46:32;;;;;;;1.70;0.88;;;;;;;17.43;56.46;99513.25;10440955;28;20024;-59
2024/02/22 01:51:33;;;;;;;1.92;0.88;;;;;;;17.45;56.28;99505.69;10451408;28;20060;-60
2024/02/22 01:56:34;;;;;;;2.28;0.82;;;;;;;17.44;57.13;99503.34;10453944;28;20166;-59
2024/02/22 02:01:34;;;;;;;1.13;0.85;;;;;;;17.45;56.86;99499.53;10452114;28;20123;-59
2024/02/22 02:06:35;;;;;;;1.42;0.80;;;;;;;17.46;57.98;99488.50;10452535;28;20070;-60
2024/02/22 02:11:35;;;;;;;1.90;0.80;;;;;;;17.44;57.52;99485.38;10452634;28;20381;-59
2024/02/22 02:16:35;;;;;;;2.50;1.37;;;;;;;17.46;56.87;99477.78;10453389;28;20291;-59
2024/02/22 02:21:52;;;;;;;1.40;0.70;;;;;;;17.44;56.23;99471.97;10451277;28;20844;-59
2024/02/22 02:26:53;;;;;;;1.55;0.85;;;;;;;17.45;56.81;99464.72;10451691;28;20279;-59
2024/02/22 02:31:53;;;;;;;1.98;1.08;;;;;;;17.50;59.67;99457.28;10451978;28;20036;-59
2024/02/22 02:36:54;;;;;;;2.25;0.80;;;;;;;17.61;60.78;99460.41;10451970;28;20380;-59
2024/02/22 02:41:54;;;;;;;1.83;0.77;;;;;;;17.60;60.62;99456.16;10433848;28;20415;-59
2024/02/22 02:46:54;;;;;;;2.03;1.17;;;;;;;17.59;59.63;99437.72;10452017;28;20275;-59
2024/02/22 02:51:54;;;;;;;1.97;1.00;;;;;;;17.57;59.06;99443.41;10451275;28;20267;-59
2024/02/22 02:56:55;;;;;;;1.73;0.80;;;;;;;17.55;59.52;99429.53;10451712;28;20275;-59
2024/02/22 03:01:55;;;;;;;1.47;0.93;;;;;;;17.53;59.37;99440.59;10449567;28;20275;-59
2024/02/22 03:06:55;;;;;;;1.67;1.03;;;;;;;17.51;58.98;99437.41;10451143;28;20282;-59
2024/02/22 03:11:56;;;;;;;1.10;0.77;;;;;;;17.50;59.51;99443.88;10450311;28;20299;-59
2024/02/22 03:16:56;;;;;;;2.83;1.35;;;;;;;17.48;58.31;99432.69;10451017;28;21175;-59
2024/02/22 03:21:58;;;;;;;1.70;0.90;;;;;;;17.45;59.93;99422.63;10450401;28;20628;-59
2024/02/22 03:26:59;;;;;;;1.90;1.10;;;;;;;17.45;58.46;99427.97;10449176;28;20373;-60
2024/02/22 03:32:02;;;;;;;2.55;1.25;;;;;;;17.43;59.35;99421.38;10450126;28;20031;-59
2024/02/22 03:37:03;;;;;;;2.70;1.38;;;;;;;17.42;58.59;99417.91;10450503;28;20036;-59
2024/02/22 03:42:03;;;;;;;2.40;1.30;;;;;;;17.39;59.64;99405.13;10449972;28;20033;-59
2024/02/22 03:47:04;;;;;;;2.47;1.20;;;;;;;17.39;57.97;99404.34;10450017;28;20031;-59
2024/02/22 03:52:04;;;;;;;2.50;1.23;;;;;;;17.39;59.43;99388.25;10448566;28;20021;-60
2024/02/22 03:57:05;;;;;;;2.58;1.17;;;;;;;17.37;59.04;99383.22;10449954;28;20287;-59
2024/02/22 04:02:06;;;;;;;1.75;1.42;;;;;;;17.37;59.62;99380.56;10449627;28;20655;-59
2024/02/22 04:07:07;;;;;;;2.30;1.30;;;;;;;17.42;59.00;99379.59;10449686;28;20091;-59
2024/02/22 04:12:07;;;;;;;2.55;1.23;;;;;;;17.45;58.03;99374.38;10449007;28;20048;-59
2024/02/22 04:17:08;;;;;;;1.95;1.38;;;;;;;17.42;58.04;99366.22;10458100;28;20032;-59
2024/02/22 04:22:08;;;;;;;2.63;1.30;;;;;;;17.41;57.92;99361.97;10457687;28;20017;-58
2024/02/22 04:27:08;;;;;;;2.80;1.20;;;;;;;17.40;57.65;99355.00;10457550;28;20267;-60
2024/02/22 04:32:09;;;;;;;2.13;1.43;;;;;;;17.41;58.13;99341.31;10457099;28;20367;-59
2024/02/22 04:37:09;;;;;;;1.52;0.95;;;;;;;17.41;58.31;99332.50;10454375;28;20634;-58
2024/02/22 04:42:10;;;;;;;2.60;1.20;;;;;;;17.39;58.21;99338.13;10454092;28;20024;-60
2024/02/22 04:47:10;;;;;;;3.03;0.90;;;;;;;17.44;59.17;99337.19;10455555;28;20287;-61
2024/02/22 04:52:10;;;;;;;2.85;1.15;;;;;;;17.46;57.87;99341.13;10454815;28;20027;-61
2024/02/22 04:57:11;;;;;;;3.30;1.42;;;;;;;17.52;58.24;99317.59;10455015;28;20021;-62
2024/02/22 05:02:11;;;;;;;1.83;1.13;;;;;;;17.56;59.58;99313.19;10454375;28;20071;-61
2024/02/22 05:07:12;;;;;;;3.27;1.30;;;;;;;17.52;58.33;99304.19;10452847;28;20024;-60
2024/02/22 05:12:12;;;;;;;3.63;1.35;;;;;;;17.46;59.21;99298.25;10450268;28;20048;-60
2024/02/22 05:17:13;;;;;;;1.70;1.15;;;;;;;17.42;59.14;99299.22;10452784;28;20362;-61
2024/02/22 05:22:13;;;;;;;3.33;1.60;;;;;;;17.41;58.75;99289.63;10451821;28;20408;-59
2024/02/22 05:27:13;;;;;;;5.65;1.10;;;;;;;17.35;59.69;99283.63;10449418;28;20021;-60
2024/02/22 05:32:14;;;;;;;3.07;1.20;;;;;;;17.34;58.43;99286.63;10451313;28;20102;-61
2024/02/22 05:37:14;;;;;;;1.63;1.07;;;;;;;17.32;59.65;99283.50;10451325;28;20348;-60
2024/02/22 05:42:14;;;;;;;2.43;1.23;;;;;;;17.31;57.84;99277.34;10451103;28;20431;-58
2024/02/22 05:47:14;;;;;;;3.33;1.93;;;;;;;17.33;59.47;99277.81;10451569;28;20366;-58
2024/02/22 05:52:15;;;;;;;3.37;1.20;;;;;;;17.34;57.79;99274.03;10451535;28;22234;-59
2024/02/22 05:57:16;;;;;;;2.80;1.40;;;;;;;17.36;58.33;99271.81;10449638;28;20623;-59
2024/02/22 06:02:16;;;;;;;8.35;1.80;;;;;;;17.39;58.98;99271.16;10450219;28;20268;-62
2024/02/22 06:07:16;;;;;;;3.50;1.53;;;;;;;17.54;58.78;99264.50;10451409;28;20017;-60
2024/02/22 06:12:17;;;;;;;18.43;3.13;;;;;;;17.54;59.22;99259.91;10449961;28;20047;-57
2024/02/22 06:17:17;;;;;;;13.07;2.37;;;;;;;17.56;58.92;99250.75;10449916;28;20279;-58
2024/02/22 06:22:17;;;;;;;11.33;1.80;;;;;;;17.60;58.90;99246.31;10450240;28;20351;-58
2024/02/22 06:27:18;;;;;;;12.75;2.03;;;;;;;17.56;58.91;99221.28;10449376;28;20325;-60
2024/02/22 06:32:18;;;;;;;10.10;2.85;;;;;;;17.51;59.53;99222.22;10448531;28;20029;-59
2024/02/22 06:37:18;;;;;;;6.53;2.10;;;;;;;17.48;59.42;99212.97;10446516;28;20052;-60
2024/02/22 06:42:19;;;;;;;8.50;3.40;;;;;;;17.43;60.59;99207.00;10443773;28;20035;-59
2024/02/22 06:47:19;;;;;;;9.13;2.33;;;;;;;17.36;58.97;99209.41;10440042;28;20029;-60
2024/02/22 06:52:20;;;;;;;8.30;2.13;;;;;;;17.33;59.63;99202.03;10443991;28;20021;-59
2024/02/22 06:57:20;;;;;;;13.73;2.78;;;;;;;17.30;59.04;99203.47;10450329;28;20271;-60
2024/02/22 07:02:20;;;;;;;10.57;2.93;;;;;;;17.26;60.67;99207.88;10449544;28;20025;-60
2024/02/22 07:07:20;;;;;;;9.43;2.40;;;;;;;17.32;59.54;99195.09;10450710;28;20651;-61
2024/02/22 07:12:21;;;;;;;10.18;3.38;;;;;;;17.32;60.74;99176.34;10450478;28;20303;-58
2024/02/22 07:17:21;;;;;;;11.33;3.97;;;;;;;17.26;59.47;99165.00;10450136;28;20028;-61
2024/02/22 07:22:22;;;;;;;13.43;3.33;;;;;;;17.23;60.27;99163.00;10450024;28;20318;-62
2024/02/22 07:27:23;;;;;;;12.88;2.72;;;;;;;17.21;60.28;99149.91;10446301;28;20306;-61
2024/02/22 07:32:25;;;;;;;4.60;1.83;;;;;;;17.19;59.07;99130.72;10450765;28;20079;-62
2024/02/22 07:37:25;;;;;;;8.50;2.40;;;;;;;17.19;59.01;99132.63;10448925;28;20051;-61
2024/02/22 07:42:26;;;;;;;6.55;2.20;;;;;;;17.18;59.72;99134.50;10449027;28;20272;-61
2024/02/22 07:47:26;;;;;;;6.30;2.20;;;;;;;17.16;59.38;99138.59;10447979;28;20036;-61
2024/02/22 07:52:26;;;;;;;7.63;2.72;;;;;;;17.17;59.31;99119.56;10448013;28;20079;-62
2024/02/22 07:57:27;;;;;;;6.97;2.20;;;;;;;17.16;60.14;99128.66;10447393;28;20433;-61
2024/02/22 08:02:27;;;;;;;6.03;2.20;;;;;;;17.16;59.22;99111.81;10448787;28;20023;-62
2024/02/22 08:07:28;;;;;;;9.43;2.75;;;;;;;17.20;59.04;99097.47;10448373;28;20761;-61
2024/02/22 08:12:28;;;;;;;10.52;2.20;;;;;;;17.24;58.49;99092.22;10448318;28;20649;-61
2024/02/22 08:17:31;;;;;;;4.63;2.25;;;;;;;17.22;58.54;99078.38;10447139;28;20072;-61
2024/02/22 08:22:31;;;;;;;8.30;2.10;;;;;;;17.23;59.33;99075.38;10448624;28;20032;-61
2024/02/22 08:27:31;;;;;;;5.90;1.47;;;;;;;17.24;59.32;99055.53;10447894;28;20519;-62
2024/02/22 08:32:31;;;;;;;4.77;1.97;;;;;;;17.28;59.37;99022.72;10448860;28;20294;-62
2024/02/22 08:37:32;;;;;;;4.50;2.03;;;;;;;17.27;58.98;99000.50;10447672;28;20276;-62
2024/02/22 08:42:32;;;;;;;3.63;1.87;;;;;;;17.23;58.39;98980.84;10448368;28;20271;-62
2024/02/22 08:47:32;;;;;;;7.17;1.90;;;;;;;17.23;59.06;98970.13;10447896;28;20267;-62
2024/02/22 08:52:33;;;;;;;4.37;1.77;;;;;;;17.27;59.46;98973.72;10447549;28;20287;-62
2024/02/22 08:57:33;;;;;;;3.97;1.60;;;;;;;17.29;58.69;98957.34;10446066;28;20326;-62
2024/02/22 09:02:33;;;;;;;2.67;1.37;;;;;;;17.25;58.83;98971.38;10454399;28;20336;-61
2024/02/22 09:07:37;;;;;;;3.03;1.25;;;;;;;17.26;58.16;98961.44;10455064;28;20321;-61
2024/02/22 09:12:40;;;;;;;3.63;1.40;;;;;;;17.28;58.93;98961.09;10454380;28;20404;-61
2024/02/22 09:17:40;;;;;;;3.05;2.03;;;;;;;17.28;58.06;98918.25;10454746;28;20041;-61
2024/02/22 09:22:41;;;;;;;4.20;1.80;;;;;;;17.28;57.66;98912.88;10454383;28;20468;-62
2024/02/22 09:27:41;;;;;;;3.83;1.15;;;;;;;17.25;59.27;98896.38;10452743;28;20481;-62
2024/02/22 09:32:42;;;;;;;1.60;1.10;;;;;;;17.23;58.16;98866.47;10452787;28;20511;-62
2024/02/22 09:37:42;;;;;;;2.45;1.33;;;;;;;17.21;58.34;98860.66;10453922;28;20310;-62
2024/02/22 09:42:43;;;;;;;3.15;1.30;;;;;;;17.19;58.34;98852.19;10452559;28;20036;-62
2024/02/22 09:47:47;;;;;;;3.08;1.20;;;;;;;17.17;59.47;98849.06;10451842;28;20028;-62
2024/02/22 09:52:47;;;;;;;1.73;1.20;;;;;;;17.14;58.62;98835.53;10451742;28;20032;-61
2024/02/22 09:57:49;;;;;;;3.13;1.73;;;;;;;17.14;59.16;98800.72;10451486;28;20380;-61
2024/02/22 10:02:50;;;;;;;3.10;1.23;;;;;;;17.12;58.99;98773.47;10453023;28;20275;-62
2024/02/22 10:07:51;;;;;;;3.03;1.42;;;;;;;17.12;59.35;98776.16;10451959;28;20017;-61
2024/02/22 10:12:51;;;;;;;2.03;1.07;;;;;;;17.11;59.46;98751.28;10451437;28;20618;-62
2024/02/22 10:17:52;;;;;;;2.00;0.90;;;;;;;17.11;59.08;98767.34;10451693;28;20271;-62
2024/02/22 10:22:52;;;;;;;3.63;1.60;;;;;;;17.11;59.62;98745.94;10452152;28;20029;-62
2024/02/22 10:27:52;;;;;;;2.60;1.33;;;;;;;17.10;59.53;98743.59;10451685;28;20814;-62
2024/02/22 10:32:56;;;;;;;2.83;1.05;;;;;;;17.14;58.00;98741.78;10451565;28;20295;-61
2024/02/22 10:37:56;;;;;;;1.65;1.10;;;;;;;17.17;57.79;98739.25;10451315;28;20527;-62
2024/02/22 10:42:57;;;;;;;2.33;1.35;;;;;;;17.16;58.05;98737.66;10451419;28;20028;-61
2024/02/22 10:48:05;;;;;;;3.15;0.80;;;;;;;17.14;59.50;98704.31;10450884;28;20036;-62
2024/02/22 10:53:12;;;;;;;2.53;0.60;;;;;;;17.13;58.75;98695.50;10438819;28;20099;-62
2024/02/22 10:58:13;;;;;;;2.05;1.23;;;;;;;17.15;58.01;98666.47;10449038;28;20587;-61
2024/02/22 11:03:15;;;;;;;3.58;1.20;;;;;;;17.15;58.65;98653.09;10449671;28;20163;-62
2024/02/22 11:08:23;;;;;;;1.58;0.80;;;;;;;17.17;58.91;98640.16;10448751;28;20024;-62
2024/02/22 11:13:23;;;;;;;1.63;0.93;;;;;;;17.21;58.49;98626.88;10449713;28;20123;-61
2024/02/22 11:18:24;;;;;;;1.50;0.70;;;;;;;17.23;57.93;98616.59;10449751;28;20021;-61
2024/02/22 11:23:33;;;;;;;1.70;0.80;;;;;;;17.27;57.95;98616.69;10449854;28;20127;-62
2024/02/22 11:28:34;;;;;;;3.25;0.80;;;;;;;17.25;58.08;98599.06;10448270;28;20476;-61
2024/02/22 11:33:34;;;;;;;1.95;0.90;;;;;;;17.25;57.57;98583.00;10449541;28;20037;-61
2024/02/22 11:38:35;;;;;;;1.45;0.73;;;;;;;17.19;57.94;98562.16;10449200;28;20036;-62
2024/02/22 11:43:35;;;;;;;0.97;0.60;;;;;;;17.17;57.52;98549.13;10449316;28;20505;-61
2024/02/22 11:48:36;;;;;;;0.90;0.50;;;;;;;17.16;58.91;98506.59;10448985;28;20032;-61
2024/02/22 11:53:36;;;;;;;1.20;0.57;;;;;;;17.21;58.48;98480.34;10448925;28;20810;-61
2024/02/22 11:58:38;;;;;;;3.40;0.90;;;;;;;17.25;58.02;98445.63;10447403;28;20031;-61
2024/02/22 12:03:39;;;;;;;1.65;1.02;;;;;;;17.25;59.13;98425.00;10449057;28;20302;-61
2024/02/22 12:08:41;;;;;;;0.90;0.60;;;;;;;17.32;58.42;98405.66;10448608;28;20025;-62
2024/02/22 12:13:42;;;;;;;1.30;0.80;;;;;;;17.33;58.54;98385.78;10447954;28;20037;-62
2024/02/22 12:18:44;;;;;;;1.58;0.57;;;;;;;17.33;57.69;98375.06;10447164;28;20492;-62
2024/02/22 12:23:44;;;;;;;1.33;0.68;;;;;;;17.33;58.56;98352.88;10448317;28;20021;-61
2024/02/22 12:28:50;;;;;;;2.13;0.93;;;;;;;17.32;57.20;98325.31;10448401;28;20415;-62
2024/02/22 12:33:52;;;;;;;1.55;0.70;;;;;;;17.28;58.68;98286.16;10432067;28;20646;-62
2024/02/22 12:38:52;;;;;;;1.13;0.60;;;;;;;17.25;58.05;98280.38;10438161;28;20025;-62
2024/02/22 12:43:55;;;;;;;2.03;1.00;;;;;;;17.22;58.05;98256.19;10456038;28;20029;-61
2024/02/22 12:48:55;;;;;;;0.95;0.55;;;;;;;17.24;59.23;98245.91;10454010;28;20044;-61
2024/02/22 12:53:56;;;;;;;1.42;0.75;;;;;;;17.26;57.95;98222.22;10455736;28;20028;-62
2024/02/22 12:58:56;;;;;;;1.25;0.75;;;;;;;17.21;58.13;98187.69;10453697;28;20029;-62
2024/02/22 13:03:57;;;;;;;1.30;0.70;;;;;;;17.19;58.74;98177.34;10455179;28;20040;-62
2024/02/22 13:08:57;;;;;;;1.20;0.80;;;;;;;17.18;57.99;98157.03;10454464;28;20029;-62
2024/02/22 13:13:57;;;;;;;1.87;0.80;;;;;;;17.16;58.33;98140.50;10454529;28;20300;-62
2024/02/22 13:18:58;;;;;;;1.05;0.77;;;;;;;17.24;57.69;98109.31;10454543;28;20977;-61
2024/02/22 13:23:58;;;;;;;1.30;0.77;;;;;;;17.27;57.42;98103.28;10454426;28;20059;-62
2024/02/22 13:28:58;;;;;;;1.65;0.70;;;;;;;17.24;59.20;98074.50;10453918;28;20056;-62
2024/02/22 13:33:59;;;;;;;1.47;0.93;;;;;;;17.25;58.20;98068.03;10454030;28;20017;-62
2024/02/22 13:38:59;;;;;;;1.38;0.82;;;;;;;17.22;58.05;98052.69;10452436;28;20761;-61
2024/02/22 13:44:00;;;;;;;1.20;0.87;;;;;;;17.22;58.42;98045.41;10453841;28;20032;-62
2024/02/22 13:49:01;;;;;;;1.50;0.80;;;;;;;17.25;58.54;98028.63;10450454;28;20271;-62
2024/02/22 13:54:01;;;;;;;1.40;0.97;;;;;;;17.24;58.17;98012.94;10452448;28;20460;-62
2024/02/22 13:59:01;;;;;;;1.07;0.70;;;;;;;17.22;58.70;97999.13;10452681;28;20329;-61
2024/02/22 14:04:02;;;;;;;0.53;0.40;;;;;;;17.17;58.38;97964.59;10453137;28;20298;-61
2024/02/22 14:09:03;;;;;;;1.40;0.80;;;;;;;17.22;57.89;97949.00;10452039;28;20316;-61
2024/02/22 14:14:03;;;;;;;1.20;0.70;;;;;;;17.23;58.18;97926.47;10452506;28;20040;-62
2024/02/22 14:19:04;;;;;;;0.93;0.60;;;;;;;17.21;58.19;97907.31;10450584;28;20617;-62
2024/02/22 14:24:05;;;;;;;0.80;0.47;;;;;;;17.19;59.27;97893.50;10452173;28;20032;-62
2024/02/22 14:29:06;;;;;;;2.08;0.70;;;;;;;17.23;58.74;97877.50;10451622;28;20465;-62
2024/02/22 14:34:06;;;;;;;1.23;0.70;;;;;;;17.24;57.62;97844.22;10451730;28;20021;-61
2024/02/22 14:39:10;;;;;;;1.60;0.60;;;;;;;17.28;58.50;97825.53;10450878;28;20025;-62
2024/02/22 14:44:10;;;;;;;0.90;0.60;;;;;;;17.28;58.22;97812.91;10451651;28;20025;-61
2024/02/22 14:49:11;;;;;;;1.33;0.80;;;;;;;17.25;57.84;97793.00;10451194;28;20025;-62
2024/02/22 14:54:11;;;;;;;0.70;0.50;;;;;;;17.24;57.97;97780.72;10450951;28;20083;-62
2024/02/22 14:59:11;;;;;;;1.03;0.70;;;;;;;17.25;58.28;97752.81;10450245;28;20279;-62
2024/02/22 15:04:12;;;;;;;0.67;0.47;;;;;;;17.25;58.54;97731.41;10450734;28;20828;-62
2024/02/22 15:09:15;;;;;;;1.05;0.50;;;;;;;17.24;58.97;97727.19;10449546;28;20286;-61
2024/02/22 15:14:17;;;;;;;0.98;0.57;;;;;;;17.23;58.33;97720.28;10448956;28;20517;-62
2024/02/22 15:19:17;;;;;;;0.57;0.40;;;;;;;17.24;59.07;97678.97;10448628;28;20021;-61
2024/02/22 15:24:18;;;;;;;0.77;0.50;;;;;;;17.23;58.33;97658.69;10449809;28;20391;-62
2024/02/22 15:29:18;;;;;;;0.50;0.40;;;;;;;17.29;57.79;97655.72;10448441;28;20283;-62
2024/02/22 15:34:19;;;;;;;0.80;0.50;;;;;;;17.31;58.84;97629.34;10448804;28;20028;-62
2024/02/22 15:39:20;;;;;;;1.77;0.50;;;;;;;17.29;57.86;97636.97;10448865;28;20034;-58
2024/02/22 15:44:20;;;;;;;1.52;0.50;;;;;;;17.32;58.68;97623.63;10449087;28;20029;-59
2024/02/22 15:49:21;;;;;;;3.80;0.65;;;;;;;17.33;59.28;97643.16;10449348;28;20028;-59
2024/02/22 15:54:22;;;;;;;4.22;0.63;;;;;;;17.34;58.69;97604.53;10448629;28;20025;-59
2024/02/22 15:59:22;;;;;;;1.02;0.60;;;;;;;17.32;57.66;97575.44;10449043;28;20032;-59
2024/02/22 16:04:23;;;;;;;1.52;0.68;;;;;;;17.30;58.76;97585.75;10448680;28;20633;-59
2024/02/22 16:09:25;;;;;;;0.52;0.32;;;;;;;17.34;58.47;97575.06;10450663;28;20534;-58
2024/02/22 16:14:25;;;;;;;0.80;0.40;;;;;;;17.33;58.32;97565.50;10456757;28;20708;-59
2024/02/22 16:19:26;;;;;;;1.40;0.30;;;;;;;17.31;57.45;97583.84;10453536;28;20167;-56
2024/02/22 16:24:27;;;;;;;1.38;0.30;;;;;;;17.28;57.41;97550.50;10456405;28;20271;-59
2024/02/22 16:29:27;;;;;;;4.40;0.57;;;;;;;17.45;58.35;97541.16;10456037;28;20121;-58
2024/02/22 16:34:28;;;;;;;4.00;0.90;;;;;;;17.62;58.64;97519.16;10456832;28;20163;-58
2024/02/22 16:39:28;;;;;;;4.22;0.88;;;;;;;17.75;58.56;97508.97;10457222;28;20849;-58
2024/02/22 16:44:29;;;;;;;4.97;1.20;;;;;;;17.86;59.84;97472.31;10456475;28;20098;-60
2024/02/22 16:49:30;;;;;;;8.10;1.73;;;;;;;17.91;61.25;97481.97;10456403;28;20321;-58
2024/02/22 16:54:30;;;;;;;8.50;1.30;;;;;;;17.99;62.55;97470.13;10454150;28;20029;-59
2024/02/22 16:59:31;;;;;;;8.83;1.47;;;;;;;18.06;60.87;97454.13;10455812;28;20021;-58
2024/02/22 17:04:32;;;;;;;6.20;1.00;;;;;;;18.09;62.56;97443.44;10455534;28;20279;-57
2024/02/22 17:09:32;;;;;;;5.83;1.23;;;;;;;18.02;63.52;97400.50;10454866;28;20048;-57
2024/02/22 17:14:32;;;;;;;6.53;1.47;;;;;;;18.13;61.58;97354.22;10454764;28;20279;-57
2024/02/22 17:19:33;;;;;;;6.50;1.60;;;;;;;17.98;61.91;97354.09;10454949;28;20299;-58
2024/02/22 17:24:34;;;;;;;10.57;2.28;;;;;;;17.93;61.85;97383.19;10454429;28;20263;-60
2024/02/22 17:29:34;;;;;;;6.18;1.27;;;;;;;17.91;61.29;97388.16;10454495;28;20016;-57
2024/02/22 17:34:35;;;;;;;3.78;1.17;;;;;;;17.86;62.49;97391.94;10454021;28;20029;-59
2024/02/22 17:39:35;;;;;;;5.73;1.90;;;;;;;17.82;61.47;97364.34;10454376;28;20040;-58
2024/02/22 17:44:35;;;;;;;14.10;1.88;;;;;;;17.74;62.18;97378.81;10454148;28;20271;-58
2024/02/22 17:49:36;;;;;;;3.57;0.87;;;;;;;17.65;61.71;97394.41;10454288;28;20032;-57
2024/02/22 17:54:37;;;;;;;4.32;0.80;;;;;;;17.56;60.87;97404.66;10454441;28;20291;-57
2024/02/22 17:59:37;;;;;;;2.35;1.08;;;;;;;17.50;60.48;97388.16;10454293;28;20021;-58
2024/02/22 18:04:38;;;;;;;3.00;0.73;;;;;;;17.46;60.47;97390.03;10453118;28;20056;-57
2024/02/22 18:09:38;;;;;;;1.67;0.80;;;;;;;17.42;60.51;97419.47;10452787;28;20345;-56
2024/02/22 18:14:39;;;;;;;2.25;1.15;;;;;;;17.39;59.99;97438.16;10451812;28;20029;-57
2024/02/22 18:19:39;;;;;;;1.73;0.57;;;;;;;17.35;59.78;97482.88;10452087;28;20021;-57
2024/02/22 18:24:42;;;;;;;2.93;0.50;;;;;;;17.34;59.41;97468.72;10452211;28;20024;-58
2024/02/22 18:29:42;;;;;;;3.20;0.55;;;;;;;17.34;59.06;97462.59;10452993;28;20275;-58
2024/02/22 18:34:44;;;;;;;2.17;0.57;;;;;;;17.34;60.03;97431.22;10451834;28;20024;-57
2024/02/22 18:39:44;;;;;;;2.00;0.50;;;;;;;17.38;58.96;97418.63;10451306;28;20714;-58
2024/02/22 18:44:45;;;;;;;2.23;0.50;;;;;;;17.39;58.58;97436.25;10450569;28;20031;-57
2024/02/22 18:49:45;;;;;;;2.10;0.85;;;;;;;17.45;59.46;97442.81;10451046;28;20302;-57
2024/02/22 18:54:47;;;;;;;3.90;0.80;;;;;;;17.45;58.22;97434.78;10450512;28;20033;-57
2024/02/22 18:59:48;;;;;;;1.30;0.50;;;;;;;17.50;58.06;97431.00;10451861;28;20029;-58
2024/02/22 19:04:48;;;;;;;2.00;0.68;;;;;;;17.52;57.85;97444.78;10451206;28;20365;-57
2024/02/22 19:09:49;;;;;;;4.53;0.55;;;;;;;17.54;58.05;97448.66;10451360;28;20060;-58
2024/02/22 19:14:51;;;;;;;1.33;0.95;;;;;;;17.54;58.60;97448.66;10450887;28;20037;-57
2024/02/22 19:19:51;;;;;;;1.85;0.60;;;;;;;17.56;57.74;97455.56;10450937;28;20021;-57
2024/02/22 19:24:51;;;;;;;6.37;0.77;;;;;;;17.57;58.57;97473.19;10448276;28;20579;-58
2024/02/22 19:29:51;;;;;;;7.83;0.97;;;;;;;17.56;58.46;97472.41;10447953;28;20290;-57
2024/02/22 19:34:52;;;;;;;1.87;0.50;;;;;;;17.58;57.56;97470.13;10445075;28;20294;-57
2024/02/22 19:39:56;;;;;;;3.30;0.77;;;;;;;17.56;58.10;97496.50;10435162;28;20029;-57
2024/02/22 19:44:56;;;;;;;3.13;0.50;;;;;;;17.56;58.62;97543.97;10448730;28;20059;-57
2024/02/22 19:49:56;;;;;;;2.97;0.60;;;;;;;17.62;57.10;97555.88;10448967;28;20025;-57
2024/02/22 19:55:00;;;;;;;8.77;2.13;;;;;;;17.62;57.78;97588.81;10448938;28;20032;-55
2024/02/22 20:00:02;;;;;;;3.25;0.60;;;;;;;17.64;57.43;97609.88;10443511;28;20647;-56
2024/02/22 20:05:04;;;;;;;2.95;0.75;;;;;;;17.68;57.64;97648.22;10448110;28;20029;-57
2024/02/22 20:10:04;;;;;;;1.98;0.47;;;;;;;17.65;58.25;97657.75;10449058;28;20276;-56
2024/02/22 20:15:05;;;;;;;2.30;0.50;;;;;;;17.62;58.02;97685.25;10446863;28;20037;-55
2024/02/22 20:20:08;;;;;;;4.70;1.25;;;;;;;17.58;58.41;97692.47;10445638;28;20021;-56
2024/02/22 20:25:09;;;;;;;3.40;0.60;;;;;;;17.56;58.10;97718.88;10448481;28;20439;-57
2024/02/22 20:30:11;;;;;;;2.28;0.68;;;;;;;17.52;58.29;97732.22;10448395;28;20017;-55
2024/02/22 20:35:12;;;;;;;2.08;0.57;;;;;;;17.53;58.84;97741.78;10441524;28;20033;-57
2024/02/22 20:40:12;;;;;;;1.50;0.80;;;;;;;17.53;59.38;97765.13;10449592;28;20033;-56
2024/02/22 20:45:14;;;;;;;2.05;0.55;;;;;;;17.50;58.55;97769.28;10447922;28;20043;-56
2024/02/22 20:50:17;;;;;;;1.23;0.40;;;;;;;17.49;57.87;97788.41;10449081;28;20025;-56
2024/02/22 20:55:18;;;;;;;1.60;0.60;;;;;;;17.48;58.66;97790.31;10443978;28;20035;-56
2024/02/22 21:00:18;;;;;;;1.33;0.40;;;;;;;17.47;57.61;97810.19;10456581;28;20027;-56
2024/02/22 21:05:19;;;;;;;1.17;0.57;;;;;;;17.45;59.19;97820.50;10456234;28;20272;-56
2024/02/22 21:10:19;;;;;;;1.85;0.75;;;;;;;17.46;57.87;97816.69;10442949;28;20055;-56
2024/02/22 21:15:20;;;;;;;1.33;0.60;;;;;;;17.44;59.44;97837.69;10455630;28;20025;-55
2024/02/22 21:20:20;;;;;;;1.13;0.50;;;;;;;17.48;59.02;97872.56;10455799;28;20279;-56
2024/02/22 21:25:21;;;;;;;0.77;0.37;;;;;;;17.51;58.30;97869.16;10455229;28;20017;-56
2024/02/22 21:30:21;;;;;;;3.60;0.47;;;;;;;17.49;58.86;97907.03;10455117;28;20275;-56
2024/02/22 21:35:21;;;;;;;4.13;0.40;;;;;;;17.52;58.61;97892.94;10454679;28;20384;-55
2024/02/22 21:40:22;;;;;;;2.40;0.33;;;;;;;17.56;58.27;97932.41;10455044;28;20029;-57
2024/02/22 21:45:24;;;;;;;1.40;0.40;;;;;;;17.54;58.60;97938.13;10454409;28;20283;-57
2024/02/22 21:50:26;;;;;;;1.95;0.82;;;;;;;17.59;57.44;97963.84;10454674;28;20287;-57
2024/02/22 21:55:26;;;;;;;1.05;0.52;;;;;;;17.58;58.72;97978.38;10453978;28;20029;-57
2024/02/22 22:00:26;;;;;;;1.80;0.32;;;;;;;17.56;58.08;97994.81;10454363;28;20024;-57
2024/02/22 22:05:27;;;;;;;1.60;0.20;;;;;;;17.52;58.43;98026.91;10452296;28;20075;-57
2024/02/22 22:10:27;;;;;;;3.60;0.50;;;;;;;17.54;57.71;98035.34;10452710;28;20291;-57
2024/02/22 22:15:28;;;;;;;1.90;0.50;;;;;;;17.54;58.59;98058.69;10451886;28;20431;-57
2024/02/22 22:20:28;;;;;;;1.80;0.50;;;;;;;17.50;59.09;98080.03;10452186;28;20059;-57
2024/02/22 22:25:29;;;;;;;0.27;0.20;;;;;;;17.47;58.05;98110.22;10453167;28;20025;-57
2024/02/22 22:30:29;;;;;;;0.47;0.25;;;;;;;17.46;57.85;98127.41;10452979;28;20283;-57
2024/02/22 22:35:30;;;;;;;0.90;0.30;;;;;;;17.46;58.13;98150.75;10452442;28;20047;-56
2024/02/22 22:40:30;;;;;;;0.85;0.40;;;;;;;17.45;58.57;98184.03;10452555;28;20307;-57
2024/02/22 22:45:30;;;;;;;1.03;0.57;;;;;;;17.44;58.81;98211.94;10452142;28;20075;-57
2024/02/22 22:50:31;;;;;;;1.07;0.40;;;;;;;17.42;58.12;98255.16;10452109;28;20358;-57
2024/02/22 22:55:31;;;;;;;1.50;0.50;;;;;;;17.46;57.95;98279.34;10451876;28;20310;-57
2024/02/22 23:00:31;;;;;;;1.25;0.20;;;;;;;17.47;57.88;98305.78;10452030;28;20283;-57
2024/02/22 23:05:32;;;;;;;2.42;0.47;;;;;;;17.46;57.33;98336.38;10451340;28;20104;-57
2024/02/22 23:10:32;;;;;;;0.57;0.20;;;;;;;17.47;58.36;98353.22;10451066;28;20075;-57
2024/02/22 23:15:32;;;;;;;0.33;0.30;;;;;;;17.48;58.28;98370.84;10450874;28;20290;-57